Time;durP1;ratioP1;P1;durP2;ratioP2;P2;SDS_P1;SDS_P2;PMS_P1;PMS_P2;Temp;Humidity;BMP_temperature;BMP_pressure;BME280_temperature;BME280_humidity;BME280_pressure;Samples;Min_cycle;Max_cycle;Signal;HPM_P1;HPM_P2
2023/12/16 00:00:18;;;;;;;21.90;10.07;;;5.60;64.30;;;;;;4965451;28;46798;-69
2023/12/16 00:02:44;;;;;;;14.60;8.43;;;5.60;64.20;;;;;;4964948;28;46342;-69
2023/12/16 00:05:10;;;;;;;16.07;9.93;;;5.50;64.70;;;;;;4972384;28;46488;-69
2023/12/16 00:07:35;;;;;;;14.87;9.37;;;5.50;64.80;;;;;;4968035;28;46484;-69
2023/12/16 00:10:01;;;;;;;17.50;9.03;;;5.50;65.10;;;;;;4967551;28;45808;-69
2023/12/16 00:12:26;;;;;;;16.60;9.83;;;5.50;64.80;;;;;;4969937;28;47146;-69
2023/12/16 00:14:52;;;;;;;13.93;8.67;;;5.60;64.50;;;;;;4970438;28;46452;-68
2023/12/16 00:17:18;;;;;;;13.40;7.53;;;5.60;64.70;;;;;;4971266;28;46424;-69
2023/12/16 00:19:43;;;;;;;12.33;6.93;;;5.60;64.60;;;;;;4970312;28;45871;-69
2023/12/16 00:22:09;;;;;;;13.20;7.20;;;5.60;64.60;;;;;;4964261;28;47274;-69
2023/12/16 00:24:35;;;;;;;12.70;7.23;;;5.60;64.40;;;;;;4965219;28;46743;-70
2023/12/16 00:27:01;;;;;;;12.50;7.37;;;5.60;64.40;;;;;;4968286;28;46524;-69
2023/12/16 00:29:26;;;;;;;10.87;6.90;;;5.70;64.20;;;;;;4968029;28;45964;-70
2023/12/16 00:31:52;;;;;;;10.67;6.40;;;5.70;64.00;;;;;;4968841;28;46489;-69
2023/12/16 00:34:18;;;;;;;12.50;7.37;;;5.80;63.70;;;;;;4968064;28;46463;-69
2023/12/16 00:36:43;;;;;;;13.17;6.30;;;5.80;63.80;;;;;;4968215;28;45875;-69
2023/12/16 00:39:09;;;;;;;9.50;6.13;;;5.80;63.70;;;;;;4968990;28;46425;-69
2023/12/16 00:41:35;;;;;;;8.33;5.33;;;5.80;63.80;;;;;;4968079;28;46777;-69
2023/12/16 00:44:00;;;;;;;10.83;5.90;;;5.80;63.60;;;;;;4967383;28;46606;-69
2023/12/16 00:46:27;;;;;;;8.50;5.37;;;5.80;63.80;;;;;;4968416;28;46369;-68
2023/12/16 00:48:52;;;;;;;11.20;5.20;;;5.70;63.80;;;;;;4965380;28;46479;-69
2023/12/16 00:51:20;;;;;;;9.97;5.70;;;5.70;64.00;;;;;;4969573;28;46433;-69
2023/12/16 00:53:46;;;;;;;10.47;6.77;;;5.70;64.00;;;;;;4967889;28;45885;-69
2023/12/16 00:56:12;;;;;;;12.93;7.17;;;5.70;64.10;;;;;;4968806;28;46283;-69
2023/12/16 00:58:37;;;;;;;15.43;9.50;;;5.70;64.10;;;;;;4972989;28;46568;-69
2023/12/16 01:01:03;;;;;;;15.80;8.93;;;5.70;64.10;;;;;;4969932;28;47418;-69
2023/12/16 01:03:29;;;;;;;15.87;10.37;;;5.80;64.00;;;;;;4970279;28;46498;-67
2023/12/16 01:05:54;;;;;;;16.80;9.73;;;5.80;63.70;;;;;;4965694;28;46468;-69
2023/12/16 01:08:20;;;;;;;21.13;11.30;;;5.90;63.60;;;;;;4968561;28;46457;-69
2023/12/16 01:10:45;;;;;;;18.73;10.30;;;5.90;63.50;;;;;;4967101;28;46362;-69
2023/12/16 01:13:11;;;;;;;19.40;10.67;;;5.90;64.60;;;;;;4965353;28;46404;-69
2023/12/16 01:15:37;;;;;;;24.53;11.30;;;5.90;63.50;;;;;;4965796;28;45796;-69
2023/12/16 01:18:03;;;;;;;14.80;9.77;;;5.90;63.30;;;;;;4964931;28;46433;-69
2023/12/16 01:20:29;;;;;;;19.30;11.07;;;5.90;63.40;;;;;;4966046;28;46479;-70
2023/12/16 01:22:54;;;;;;;16.13;11.03;;;5.90;63.50;;;;;;4966709;28;46414;-69
2023/12/16 01:25:20;;;;;;;18.70;11.03;;;5.90;63.50;;;;;;4963529;28;46969;-69
2023/12/16 01:27:48;;;;;;;21.10;11.37;;;5.90;63.50;;;;;;4964006;28;45867;-68
2023/12/16 01:30:13;;;;;;;18.77;10.30;;;5.90;63.80;;;;;;4970005;28;46444;-69
2023/12/16 01:32:39;;;;;;;15.93;9.97;;;5.90;64.10;;;;;;4967131;28;46106;-69
2023/12/16 01:35:05;;;;;;;19.10;11.13;;;5.90;64.10;;;;;;4966892;28;46398;-69
2023/12/16 01:37:30;;;;;;;19.87;11.70;;;5.90;64.00;;;;;;4968732;28;46575;-69
2023/12/16 01:39:56;;;;;;;18.43;10.80;;;5.90;64.00;;;;;;4962567;28;46441;-69
2023/12/16 01:42:22;;;;;;;16.90;10.70;;;5.90;64.00;;;;;;4970306;28;46425;-69
2023/12/16 01:44:47;;;;;;;23.70;12.30;;;5.90;64.00;;;;;;4968658;28;46372;-69
2023/12/16 01:47:13;;;;;;;18.23;12.03;;;5.90;64.00;;;;;;4968567;28;45930;-69
2023/12/16 01:49:39;;;;;;;21.57;13.13;;;5.90;63.90;;;;;;4971178;28;46307;-70
2023/12/16 01:52:06;;;;;;;22.90;12.50;;;5.90;64.00;;;;;;4964826;28;45881;-67
2023/12/16 01:54:32;;;;;;;20.97;12.23;;;6.10;64.20;;;;;;4968896;28;46485;-69
2023/12/16 01:57:01;;;;;;;23.73;13.10;;;5.90;64.10;;;;;;4969031;28;46307;-69
2023/12/16 01:59:27;;;;;;;22.90;13.43;;;5.90;64.10;;;;;;4967491;28;48361;-69
2023/12/16 02:01:54;;;;;;;24.87;12.23;;;5.90;64.10;;;;;;4969717;28;46448;-69
2023/12/16 02:04:20;;;;;;;20.87;12.07;;;5.90;64.20;;;;;;4965465;28;46569;-69
2023/12/16 02:06:45;;;;;;;22.50;13.50;;;5.90;64.30;;;;;;4965810;28;46569;-67
2023/12/16 02:09:17;;;;;;;22.60;12.80;;;5.90;64.30;;;;;;4962620;28;46413;-69
2023/12/16 02:11:43;;;;;;;23.40;12.50;;;5.90;64.10;;;;;;4967049;28;46441;-68
2023/12/16 02:14:08;;;;;;;25.90;13.80;;;5.90;63.90;;;;;;4969203;28;46562;-69
2023/12/16 02:16:35;;;;;;;22.00;12.57;;;5.90;63.90;;;;;;4967414;28;46740;-69
2023/12/16 02:19:03;;;;;;;22.37;13.03;;;5.90;63.90;;;;;;4968776;28;47459;-69
2023/12/16 02:21:28;;;;;;;22.50;13.57;;;5.90;64.10;;;;;;4961431;28;46452;-69
2023/12/16 02:23:54;;;;;;;24.77;14.53;;;5.80;64.00;;;;;;4964645;28;46485;-68
2023/12/16 02:26:19;;;;;;;23.10;14.27;;;5.80;64.10;;;;;;4969049;28;45909;-69
2023/12/16 02:28:45;;;;;;;22.70;14.37;;;5.80;64.20;;;;;;4966999;28;46381;-68
2023/12/16 02:31:10;;;;;;;23.23;14.00;;;5.80;64.30;;;;;;4962947;28;46432;-69
2023/12/16 02:33:36;;;;;;;29.37;16.70;;;5.80;64.20;;;;;;4965546;28;46354;-68
2023/12/16 02:36:02;;;;;;;23.70;13.73;;;5.80;64.20;;;;;;4969537;28;46373;-69
2023/12/16 02:38:27;;;;;;;24.43;14.67;;;5.80;64.20;;;;;;4968064;28;46337;-69
2023/12/16 02:40:53;;;;;;;24.57;13.87;;;5.80;64.30;;;;;;4964657;28;46342;-68
2023/12/16 02:43:21;;;;;;;28.20;14.97;;;5.80;64.40;;;;;;4968235;28;46428;-69
2023/12/16 02:45:46;;;;;;;28.23;15.10;;;5.70;64.30;;;;;;4966150;28;46525;-69
2023/12/16 02:48:12;;;;;;;27.03;15.50;;;5.70;64.50;;;;;;4965573;28;46469;-67
2023/12/16 02:50:37;;;;;;;24.77;13.80;;;5.70;64.30;;;;;;4966881;28;46445;-69
2023/12/16 02:53:03;;;;;;;23.47;13.70;;;5.80;64.30;;;;;;4964803;28;46156;-69
2023/12/16 02:55:28;;;;;;;23.50;13.60;;;5.70;64.60;;;;;;4963654;28;45913;-69
2023/12/16 02:57:54;;;;;;;25.57;14.33;;;5.70;64.20;;;;;;4967633;28;46492;-69
2023/12/16 03:00:19;;;;;;;23.43;13.87;;;5.70;64.30;;;;;;4969713;28;46722;-69
2023/12/16 03:02:45;;;;;;;27.83;14.63;;;5.80;64.50;;;;;;4968144;28;45885;-69
2023/12/16 03:05:11;;;;;;;24.77;14.70;;;5.80;64.10;;;;;;4964584;28;46365;-69
2023/12/16 03:07:38;;;;;;;27.23;15.17;;;5.80;64.10;;;;;;4970386;28;46695;-69
2023/12/16 03:10:04;;;;;;;22.40;13.13;;;5.80;64.30;;;;;;4963703;28;46390;-69
2023/12/16 03:12:30;;;;;;;22.37;13.77;;;5.80;64.30;;;;;;4968961;28;45903;-69
2023/12/16 03:14:55;;;;;;;25.43;13.97;;;5.80;64.10;;;;;;4967260;28;46493;-68
2023/12/16 03:17:21;;;;;;;23.50;13.73;;;5.80;64.10;;;;;;4964229;28;46990;-69
2023/12/16 03:19:47;;;;;;;24.57;13.70;;;5.80;64.10;;;;;;4965371;28;46438;-67
2023/12/16 03:22:12;;;;;;;23.33;13.87;;;5.80;64.10;;;;;;4965757;28;46416;-69
2023/12/16 03:24:38;;;;;;;31.17;14.20;;;5.80;64.10;;;;;;4963651;28;46491;-67
2023/12/16 03:27:03;;;;;;;21.70;12.80;;;5.80;64.20;;;;;;4965600;28;46439;-67
2023/12/16 03:29:31;;;;;;;21.53;13.10;;;5.80;64.30;;;;;;4968115;28;46513;-69
2023/12/16 03:31:57;;;;;;;26.33;13.20;;;5.70;64.40;;;;;;4961126;28;46817;-68
2023/12/16 03:34:22;;;;;;;26.13;13.70;;;5.70;64.40;;;;;;4966995;28;45987;-69
2023/12/16 03:36:48;;;;;;;22.60;13.97;;;5.80;64.40;;;;;;4963916;28;46467;-69
2023/12/16 03:39:13;;;;;;;22.80;13.23;;;5.80;64.50;;;;;;4964985;28;46878;-69
2023/12/16 03:41:39;;;;;;;21.80;14.00;;;5.80;64.20;;;;;;4963530;28;46374;-69
2023/12/16 03:44:05;;;;;;;26.93;14.20;;;5.80;64.10;;;;;;4972094;28;46402;-69
2023/12/16 03:46:30;;;;;;;24.30;13.30;;;5.80;64.20;;;;;;4969176;28;47221;-69
2023/12/16 03:48:56;;;;;;;24.00;14.30;;;5.80;64.10;;;;;;4966177;28;46542;-69
2023/12/16 03:51:22;;;;;;;28.40;14.40;;;5.80;64.30;;;;;;4972718;28;45872;-67
2023/12/16 03:53:48;;;;;;;30.53;13.57;;;5.70;64.20;;;;;;4965451;28;46462;-69
2023/12/16 03:56:13;;;;;;;23.70;13.50;;;5.70;64.30;;;;;;4966817;28;47062;-67
2023/12/16 03:58:39;;;;;;;25.20;13.63;;;5.70;64.30;;;;;;4971386;28;46507;-69
2023/12/16 04:01:05;;;;;;;31.00;14.10;;;5.70;64.40;;;;;;4967994;28;45940;-69
2023/12/16 04:03:30;;;;;;;25.17;15.07;;;5.60;64.50;;;;;;4969362;28;46575;-69
2023/12/16 04:05:56;;;;;;;24.33;14.07;;;5.60;64.50;;;;;;4970281;28;47235;-69
2023/12/16 04:08:21;;;;;;;25.60;14.33;;;5.60;64.50;;;;;;4970338;28;46742;-69
2023/12/16 04:10:47;;;;;;;26.30;14.73;;;5.60;64.50;;;;;;4969665;28;46418;-68
2023/12/16 04:13:15;;;;;;;24.70;14.80;;;5.60;64.60;;;;;;4971446;28;46495;-69
2023/12/16 04:15:40;;;;;;;26.00;14.30;;;5.50;64.40;;;;;;4969464;28;46562;-69
2023/12/16 04:18:06;;;;;;;24.57;13.87;;;5.50;64.50;;;;;;4967021;28;46456;-69
2023/12/16 04:20:32;;;;;;;26.03;13.80;;;5.50;64.50;;;;;;4965644;28;45905;-68
2023/12/16 04:22:57;;;;;;;26.27;14.27;;;5.50;64.60;;;;;;4969655;28;46461;-67
2023/12/16 04:25:23;;;;;;;24.73;13.57;;;5.50;64.60;;;;;;4968527;28;46928;-69
2023/12/16 04:27:48;;;;;;;23.50;12.80;;;5.50;64.70;;;;;;4967740;28;46469;-68
2023/12/16 04:30:14;;;;;;;19.80;12.20;;;5.40;64.60;;;;;;4967484;28;46432;-69
2023/12/16 04:32:40;;;;;;;24.00;13.40;;;5.40;64.80;;;;;;4969168;28;46550;-69
2023/12/16 04:35:06;;;;;;;27.40;14.17;;;5.50;64.70;;;;;;4971503;28;47276;-69
2023/12/16 04:37:31;;;;;;;23.17;13.83;;;5.50;64.50;;;;;;4968632;28;46537;-69
2023/12/16 04:39:57;;;;;;;25.27;13.67;;;5.50;64.40;;;;;;4968526;28;46618;-69
2023/12/16 04:42:22;;;;;;;23.27;13.10;;;5.50;64.40;;;;;;4976183;23;45903;-69
2023/12/16 04:44:48;;;;;;;27.03;15.67;;;5.50;64.20;;;;;;4968998;28;46420;-69
2023/12/16 04:47:13;;;;;;;26.63;15.60;;;5.60;64.00;;;;;;4969216;28;46366;-69
2023/12/16 04:49:42;;;;;;;21.83;13.17;;;5.60;63.70;;;;;;4970580;28;47042;-69
2023/12/16 04:52:07;;;;;;;27.23;15.77;;;5.60;63.60;;;;;;4970415;28;46006;-69
2023/12/16 04:54:33;;;;;;;24.00;13.83;;;5.60;63.50;;;;;;4967972;28;47100;-69
2023/12/16 04:56:59;;;;;;;25.10;14.70;;;5.60;63.60;;;;;;4970051;28;46781;-69
2023/12/16 04:59:24;;;;;;;24.23;14.87;;;5.60;63.90;;;;;;4972416;28;46444;-68
2023/12/16 05:01:50;;;;;;;24.00;13.90;;;5.50;63.80;;;;;;4969872;28;46151;-69
2023/12/16 05:04:15;;;;;;;27.10;13.23;;;5.50;63.90;;;;;;4968906;28;46434;-69
2023/12/16 05:06:41;;;;;;;23.83;13.80;;;5.50;64.10;;;;;;4969530;28;46519;-68
2023/12/16 05:09:12;;;;;;;25.30;14.20;;;5.50;64.20;;;;;;4968494;28;46149;-69
2023/12/16 05:11:38;;;;;;;27.10;13.83;;;5.40;64.20;;;;;;4971329;28;46524;-68
2023/12/16 05:14:03;;;;;;;19.67;12.23;;;5.40;64.60;;;;;;4971353;28;46774;-69
2023/12/16 05:16:29;;;;;;;22.10;12.60;;;5.40;64.70;;;;;;4964164;28;46540;-67
2023/12/16 05:18:55;;;;;;;24.47;12.57;;;5.30;64.70;;;;;;4968566;28;46517;-69
2023/12/16 05:21:20;;;;;;;20.50;12.20;;;5.30;64.80;;;;;;4969762;28;45997;-69
2023/12/16 05:23:46;;;;;;;21.23;12.40;;;5.20;64.90;;;;;;4968106;28;46461;-67
2023/12/16 05:26:12;;;;;;;26.70;12.60;;;5.20;65.20;;;;;;4970513;28;46529;-69
2023/12/16 05:28:37;;;;;;;22.37;13.73;;;5.20;65.20;;;;;;4968130;28;45962;-69
2023/12/16 05:31:03;;;;;;;20.40;11.87;;;5.20;65.20;;;;;;4967145;28;46643;-69
2023/12/16 05:33:29;;;;;;;21.40;11.27;;;5.20;65.10;;;;;;4970188;28;47197;-69
2023/12/16 05:35:55;;;;;;;21.27;11.87;;;5.20;65.20;;;;;;4971033;28;46378;-69
2023/12/16 05:38:20;;;;;;;22.17;12.03;;;5.20;65.10;;;;;;4968792;28;46474;-69
2023/12/16 05:40:46;;;;;;;22.10;11.70;;;5.20;65.10;;;;;;4971793;28;46617;-69
2023/12/16 05:43:11;;;;;;;22.03;12.50;;;5.20;65.00;;;;;;4967294;28;46523;-68
2023/12/16 05:45:37;;;;;;;21.37;12.80;;;5.20;64.80;;;;;;4968861;28;46508;-69
2023/12/16 05:48:03;;;;;;;18.80;11.47;;;5.10;64.70;;;;;;4968881;28;46502;-69
2023/12/16 05:50:28;;;;;;;21.03;12.30;;;5.10;64.80;;;;;;4970789;28;46720;-69
2023/12/16 05:52:54;;;;;;;24.37;13.10;;;5.10;64.70;;;;;;4969018;28;47302;-68
2023/12/16 05:55:19;;;;;;;19.13;11.83;;;5.10;64.70;;;;;;4968896;28;46479;-69
2023/12/16 05:57:45;;;;;;;24.33;11.63;;;5.10;64.80;;;;;;4966785;28;45996;-68
2023/12/16 06:00:11;;;;;;;23.73;11.90;;;5.10;64.70;;;;;;4967292;28;45913;-69
2023/12/16 06:02:37;;;;;;;20.07;11.43;;;5.00;64.60;;;;;;4969188;28;46498;-69
2023/12/16 06:05:03;;;;;;;18.10;10.80;;;5.00;65.80;;;;;;4966366;28;46401;-69
2023/12/16 06:07:29;;;;;;;19.60;10.60;;;5.00;64.70;;;;;;4968525;28;46769;-68
2023/12/16 06:09:55;;;;;;;19.13;12.10;;;5.00;64.90;;;;;;4970111;28;46396;-69
2023/12/16 06:12:20;;;;;;;19.83;10.80;;;4.90;65.00;;;;;;4968789;28;46737;-68
2023/12/16 06:14:46;;;;;;;17.50;10.37;;;4.90;65.10;;;;;;4968391;28;46752;-68
2023/12/16 06:17:12;;;;;;;20.40;11.30;;;4.90;65.10;;;;;;4968808;28;46488;-68
2023/12/16 06:19:38;;;;;;;16.80;10.80;;;4.80;65.30;;;;;;4970510;28;46405;-68
2023/12/16 06:22:03;;;;;;;18.60;10.47;;;4.70;65.50;;;;;;4968546;28;46404;-68
2023/12/16 06:24:29;;;;;;;20.93;12.30;;;4.70;65.40;;;;;;4966877;28;46542;-68
2023/12/16 06:26:55;;;;;;;18.03;10.57;;;4.70;65.30;;;;;;4968135;28;46355;-68
2023/12/16 06:29:20;;;;;;;22.67;12.17;;;4.80;65.30;;;;;;4966077;28;46619;-69
2023/12/16 06:31:46;;;;;;;22.50;13.17;;;4.80;64.90;;;;;;4966332;28;46523;-69
2023/12/16 06:34:11;;;;;;;20.07;12.30;;;4.80;64.70;;;;;;4968189;28;46534;-68
2023/12/16 06:36:37;;;;;;;20.57;10.67;;;4.90;64.50;;;;;;4969028;28;46690;-67
2023/12/16 06:39:03;;;;;;;18.77;11.27;;;4.90;64.40;;;;;;4966743;28;46894;-68
2023/12/16 06:41:30;;;;;;;18.53;10.90;;;4.80;64.40;;;;;;4966681;28;46023;-69
2023/12/16 06:43:55;;;;;;;21.20;12.73;;;4.80;64.50;;;;;;4969656;28;45874;-69
2023/12/16 06:46:23;;;;;;;26.73;14.73;;;4.80;64.60;;;;;;4968053;28;46509;-69
2023/12/16 06:48:49;;;;;;;30.10;16.10;;;4.70;64.60;;;;;;4968389;28;46678;-69
2023/12/16 06:51:14;;;;;;;22.53;13.07;;;4.70;64.60;;;;;;4966119;28;46389;-67
2023/12/16 06:53:40;;;;;;;22.37;13.13;;;4.70;64.70;;;;;;4969396;28;46452;-68
2023/12/16 06:56:07;;;;;;;18.23;10.03;;;4.70;64.70;;;;;;4970168;28;46473;-69
2023/12/16 06:58:34;;;;;;;19.77;10.03;;;4.70;64.80;;;;;;4970150;28;46667;-69
2023/12/16 07:01:00;;;;;;;17.00;9.70;;;4.60;64.90;;;;;;4971682;28;47260;-68
2023/12/16 07:03:28;;;;;;;17.90;11.37;;;4.60;65.20;;;;;;4972235;28;45818;-68
2023/12/16 07:05:54;;;;;;;17.93;9.37;;;4.50;65.20;;;;;;4968458;28;45987;-69
2023/12/16 07:08:19;;;;;;;18.07;9.40;;;4.60;65.20;;;;;;4968818;28;46550;-69
2023/12/16 07:10:45;;;;;;;18.60;9.50;;;4.60;65.00;;;;;;4970051;28;48164;-68
2023/12/16 07:13:11;;;;;;;17.20;10.40;;;4.70;65.00;;;;;;4968931;28;46567;-68
2023/12/16 07:15:38;;;;;;;17.30;9.40;;;4.80;64.80;;;;;;4967259;28;46341;-68
2023/12/16 07:18:03;;;;;;;17.67;9.67;;;4.90;64.50;;;;;;4963875;28;46744;-68
2023/12/16 07:20:29;;;;;;;15.27;9.30;;;5.00;64.30;;;;;;4967274;28;46511;-68
2023/12/16 07:22:55;;;;;;;16.70;9.10;;;5.10;64.10;;;;;;4967874;28;46423;-69
2023/12/16 07:25:21;;;;;;;16.53;9.60;;;5.10;63.90;;;;;;4965910;28;46732;-68
2023/12/16 07:27:47;;;;;;;14.93;9.33;;;5.20;63.70;;;;;;4962551;28;46580;-68
2023/12/16 07:30:13;;;;;;;20.27;12.60;;;5.30;63.60;;;;;;4969122;28;46500;-68
2023/12/16 07:32:40;;;;;;;18.67;12.03;;;5.40;63.50;;;;;;4966401;28;46457;-68
2023/12/16 07:35:08;;;;;;;25.70;14.10;;;5.40;63.40;;;;;;4968225;28;46535;-67
2023/12/16 07:37:34;;;;;;;20.53;12.57;;;5.50;63.20;;;;;;4968932;28;46450;-68
2023/12/16 07:40:00;;;;;;;20.60;12.13;;;5.60;63.20;;;;;;4968415;28;46358;-69
2023/12/16 07:42:25;;;;;;;20.07;10.27;;;5.60;63.00;;;;;;4970710;28;45861;-68
2023/12/16 07:44:51;;;;;;;15.20;9.57;;;5.70;63.10;;;;;;4966457;28;46342;-68
2023/12/16 07:47:17;;;;;;;15.50;9.13;;;5.70;62.90;;;;;;4968135;28;46432;-69
2023/12/16 07:49:42;;;;;;;14.10;8.73;;;5.80;62.60;;;;;;4967771;28;46761;-69
2023/12/16 07:52:08;;;;;;;14.10;9.10;;;5.90;62.30;;;;;;4966598;28;46820;-68
2023/12/16 07:54:34;;;;;;;15.77;9.07;;;5.90;62.40;;;;;;4966452;28;46573;-68
2023/12/16 07:57:00;;;;;;;16.63;10.63;;;5.90;62.10;;;;;;4964113;28;46727;-66
2023/12/16 07:59:25;;;;;;;19.60;10.73;;;6.00;62.60;;;;;;4963955;28;46474;-68
2023/12/16 08:01:53;;;;;;;15.67;9.00;;;6.00;62.30;;;;;;4966361;28;46563;-68
2023/12/16 08:04:19;;;;;;;16.63;9.20;;;6.00;62.30;;;;;;4967377;28;46558;-68
2023/12/16 08:06:45;;;;;;;19.63;10.10;;;6.00;62.50;;;;;;4966429;28;46505;-67
2023/12/16 08:09:10;;;;;;;15.77;9.90;;;6.00;62.50;;;;;;4967137;28;47328;-70
2023/12/16 08:11:36;;;;;;;14.40;8.80;;;5.90;62.80;;;;;;4965991;28;46470;-68
2023/12/16 08:14:02;;;;;;;16.57;9.27;;;5.90;63.20;;;;;;4969010;28;46452;-69
2023/12/16 08:16:28;;;;;;;16.03;9.63;;;5.90;63.50;;;;;;4966300;28;46741;-68
2023/12/16 08:18:54;;;;;;;18.70;10.33;;;5.90;63.30;;;;;;4966586;28;46463;-68
2023/12/16 08:21:20;;;;;;;18.90;10.70;;;6.00;63.00;;;;;;4969345;28;46460;-67
2023/12/16 08:23:46;;;;;;;18.23;10.87;;;6.10;63.10;;;;;;4967831;28;46563;-68
2023/12/16 08:26:12;;;;;;;15.53;9.87;;;6.00;63.20;;;;;;4971454;28;46820;-68
2023/12/16 08:28:38;;;;;;;15.87;9.27;;;5.90;63.50;;;;;;4969228;28;46427;-68
2023/12/16 08:31:03;;;;;;;15.50;9.87;;;5.80;64.00;;;;;;4969730;28;46496;-68
2023/12/16 08:33:29;;;;;;;11.93;8.13;;;5.80;64.40;;;;;;4969282;28;46345;-68
2023/12/16 08:35:56;;;;;;;13.67;8.77;;;5.70;64.50;;;;;;4966217;28;46461;-70
2023/12/16 08:38:22;;;;;;;15.13;9.10;;;5.80;64.80;;;;;;4969222;28;47119;-70
2023/12/16 08:40:48;;;;;;;14.07;7.40;;;5.70;65.10;;;;;;4966163;28;46481;-69
2023/12/16 08:43:14;;;;;;;10.93;7.33;;;5.70;65.30;;;;;;4968072;28;46331;-69
2023/12/16 08:45:39;;;;;;;11.77;7.10;;;5.70;65.30;;;;;;4966143;28;46492;-68
2023/12/16 08:48:05;;;;;;;14.47;8.10;;;5.70;65.20;;;;;;4966666;28;46742;-68
2023/12/16 08:50:30;;;;;;;12.10;7.30;;;5.70;65.30;;;;;;4966242;28;46420;-69
2023/12/16 08:52:56;;;;;;;13.83;7.87;;;5.70;65.20;;;;;;4972965;28;46436;-69
2023/12/16 08:55:24;;;;;;;13.23;7.70;;;5.80;65.20;;;;;;4966005;28;46335;-69
2023/12/16 08:57:51;;;;;;;15.17;8.03;;;5.90;65.00;;;;;;4969828;28;46977;-70
2023/12/16 09:00:17;;;;;;;12.13;7.63;;;6.00;64.80;;;;;;4966316;28;46511;-71
2023/12/16 09:02:43;;;;;;;11.40;7.27;;;6.10;64.70;;;;;;4968005;28;46473;-69
2023/12/16 09:05:09;;;;;;;11.07;7.10;;;6.20;64.20;;;;;;4966750;28;46541;-69
2023/12/16 09:07:35;;;;;;;10.90;6.90;;;6.30;63.90;;;;;;4972343;28;46462;-69
2023/12/16 09:10:00;;;;;;;11.50;6.70;;;6.40;63.80;;;;;;4965467;28;45845;-69
2023/12/16 09:12:26;;;;;;;27.73;14.10;;;6.40;63.70;;;;;;4969029;28;46584;-70
2023/12/16 09:14:51;;;;;;;22.00;11.70;;;6.40;63.80;;;;;;4968065;28;46440;-70
2023/12/16 09:17:17;;;;;;;13.13;8.30;;;6.40;64.10;;;;;;4967966;28;47087;-69
2023/12/16 09:19:43;;;;;;;11.50;7.57;;;6.40;64.20;;;;;;4970726;28;46376;-68
2023/12/16 09:22:09;;;;;;;10.63;7.20;;;6.40;64.30;;;;;;4985706;28;46341;-67
2023/12/16 09:24:34;;;;;;;9.23;6.00;;;6.50;64.20;;;;;;4976766;28;46475;-70
2023/12/16 09:27:00;;;;;;;10.63;6.90;;;6.50;64.30;;;;;;4971324;28;46466;-69
2023/12/16 09:29:26;;;;;;;14.73;6.53;;;6.40;64.30;;;;;;4969176;28;46502;-69
2023/12/16 09:31:51;;;;;;;12.20;6.80;;;6.50;64.20;;;;;;4965948;28;46622;-69
2023/12/16 09:34:17;;;;;;;10.63;6.30;;;6.50;64.00;;;;;;4970853;28;46642;-69
2023/12/16 09:36:42;;;;;;;10.20;6.53;;;6.50;64.00;;;;;;4967527;28;46996;-68
2023/12/16 09:39:10;;;;;;;12.73;6.87;;;6.50;63.80;;;;;;4971254;28;46888;-68
2023/12/16 09:41:44;;;;;;;9.17;6.00;;;6.50;63.70;;;;;;4970134;28;46754;-69
2023/12/16 09:44:16;;;;;;;10.23;6.43;;;6.60;63.70;;;;;;4968797;28;46558;-68
2023/12/16 09:46:43;;;;;;;10.70;6.43;;;6.60;63.40;;;;;;4968993;28;46498;-69
2023/12/16 09:49:09;;;;;;;10.90;5.97;;;6.70;63.00;;;;;;4971482;28;46576;-71
2023/12/16 09:51:35;;;;;;;11.83;6.10;;;6.90;62.70;;;;;;4967909;28;46585;-69
2023/12/16 09:54:01;;;;;;;8.70;6.10;;;7.10;62.60;;;;;;4971502;28;46603;-69
2023/12/16 09:56:28;;;;;;;10.50;6.23;;;7.40;61.70;;;;;;4967983;28;46488;-70
2023/12/16 09:58:55;;;;;;;7.50;5.67;;;7.70;60.80;;;;;;4965763;28;46458;-68
2023/12/16 10:01:21;;;;;;;7.63;5.63;;;8.00;60.00;;;;;;4969058;28;46659;-69
2023/12/16 10:03:47;;;;;;;11.37;6.87;;;8.40;58.90;;;;;;4971193;28;46816;-70
2023/12/16 10:06:17;;;;;;;10.40;7.27;;;8.60;57.90;;;;;;4974302;28;46554;-69
2023/12/16 10:08:44;;;;;;;10.60;6.90;;;8.70;57.00;;;;;;4967939;28;45803;-69
2023/12/16 10:11:09;;;;;;;12.93;6.30;;;8.80;57.00;;;;;;4973521;28;46932;-68
2023/12/16 10:14:00;;;;;;;8.90;5.67;;;8.80;56.80;;;;;;4969565;28;46431;-68
2023/12/16 10:16:26;;;;;;;8.30;5.60;;;8.80;56.60;;;;;;4975187;28;48191;-70
2023/12/16 10:18:53;;;;;;;15.97;6.53;;;8.80;56.60;;;;;;4981146;28;46007;-68
2023/12/16 10:21:24;;;;;;;9.90;6.50;;;8.80;56.10;;;;;;4968427;28;46455;-70
2023/12/16 10:23:50;;;;;;;9.37;5.83;;;8.70;55.30;;;;;;4969143;28;46494;-68
2023/12/16 10:26:16;;;;;;;8.80;5.87;;;8.70;55.20;;;;;;4965776;28;46470;-70
2023/12/16 10:28:49;;;;;;;9.70;6.43;;;8.70;55.20;;;;;;4962787;28;46444;-71
2023/12/16 10:31:21;;;;;;;9.73;6.00;;;8.60;55.40;;;;;;4967298;28;46088;-70
2023/12/16 10:33:50;;;;;;;8.33;5.30;;;8.70;55.10;;;;;;4971315;28;46456;-70
2023/12/16 10:36:16;;;;;;;9.60;6.03;;;8.70;54.90;;;;;;4974563;28;46355;-69
2023/12/16 10:38:42;;;;;;;9.77;6.23;;;8.70;54.70;;;;;;4965340;28;46680;-69
2023/12/16 10:41:11;;;;;;;10.07;6.33;;;8.80;54.30;;;;;;4969151;28;46946;-69
2023/12/16 10:43:37;;;;;;;9.03;5.47;;;8.80;53.80;;;;;;4964615;28;46504;-69
2023/12/16 10:46:06;;;;;;;83.90;46.03;;;8.70;53.70;;;;;;4969743;28;47456;-70
2023/12/16 10:48:34;;;;;;;12.10;8.90;;;8.70;53.80;;;;;;4963420;28;46494;-69
2023/12/16 10:51:04;;;;;;;8.57;6.00;;;8.80;53.60;;;;;;4965037;28;46720;-67
2023/12/16 10:53:44;;;;;;;9.40;6.50;;;8.70;53.50;;;;;;4965188;28;46614;-68
2023/12/16 10:56:21;;;;;;;10.80;5.50;;;8.60;53.50;;;;;;4965061;28;47255;-68
2023/12/16 10:59:04;;;;;;;7.40;5.47;;;8.40;53.80;;;;;;4966700;28;46430;-69
2023/12/16 11:01:34;;;;;;;9.73;7.30;;;8.30;54.20;;;;;;4967873;28;46375;-68
2023/12/16 11:04:23;;;;;;;8.47;5.90;;;8.00;54.70;;;;;;4966247;28;46571;-68
2023/12/16 11:06:57;;;;;;;7.23;5.40;;;7.90;55.00;;;;;;4967275;28;46060;-68
2023/12/16 11:09:23;;;;;;;9.47;5.13;;;7.90;55.10;;;;;;4964751;28;46698;-68
2023/12/16 11:11:50;;;;;;;9.00;5.70;;;7.90;55.10;;;;;;4967544;28;46480;-68
2023/12/16 11:14:16;;;;;;;7.87;5.47;;;8.00;55.20;;;;;;4968141;28;46612;-68
2023/12/16 11:16:57;;;;;;;8.57;4.60;;;8.00;54.80;;;;;;4966091;28;46612;-66
2023/12/16 11:19:28;;;;;;;7.30;4.87;;;8.20;53.90;;;;;;4966312;28;45872;-68
2023/12/16 11:21:53;;;;;;;8.83;5.00;;;8.20;53.30;;;;;;4966548;28;46725;-69
2023/12/16 11:24:19;;;;;;;8.30;5.53;;;8.30;53.10;;;;;;4966499;28;46472;-68
2023/12/16 11:26:55;;;;;;;16.80;7.53;;;8.30;53.10;;;;;;4964437;28;46605;-68
2023/12/16 11:29:24;;;;;;;7.60;5.00;;;8.30;53.00;;;;;;4966293;28;46492;-69
2023/12/16 11:31:58;;;;;;;9.63;5.90;;;8.40;52.80;;;;;;4968476;28;45761;-68
2023/12/16 11:34:47;;;;;;;8.87;5.57;;;8.60;51.90;;;;;;4969219;28;46389;-69
2023/12/16 11:37:12;;;;;;;8.27;5.53;;;8.80;51.60;;;;;;4966011;28;46446;-70
2023/12/16 11:39:45;;;;;;;7.97;4.67;;;9.00;50.50;;;;;;4967523;28;46467;-68
2023/12/16 11:42:12;;;;;;;10.63;6.07;;;9.00;49.70;;;;;;4964380;28;47001;-68
2023/12/16 11:44:51;;;;;;;8.40;4.80;;;9.20;48.80;;;;;;4968847;28;46498;-67
2023/12/16 11:47:24;;;;;;;7.30;4.90;;;9.20;48.10;;;;;;4966952;28;46601;-67
2023/12/16 11:49:55;;;;;;;7.83;4.70;;;9.00;47.80;;;;;;4965079;28;46414;-66
2023/12/16 11:52:24;;;;;;;8.47;5.43;;;8.90;48.50;;;;;;4962054;28;46418;-68
2023/12/16 11:54:57;;;;;;;10.13;6.37;;;8.90;49.00;;;;;;4959033;28;46532;-69
2023/12/16 11:57:25;;;;;;;8.33;4.77;;;8.90;48.60;;;;;;4967284;28;46358;-68
2023/12/16 11:59:51;;;;;;;8.73;4.70;;;8.90;48.50;;;;;;4967993;28;46425;-70
2023/12/16 12:02:18;;;;;;;7.87;4.57;;;8.90;48.30;;;;;;4969613;28;46516;-70
2023/12/16 12:04:44;;;;;;;7.60;4.53;;;9.10;47.80;;;;;;4967015;28;46849;-70
2023/12/16 12:07:10;;;;;;;6.60;4.20;;;9.30;47.20;;;;;;4969371;28;46451;-70
2023/12/16 12:09:39;;;;;;;5.83;4.30;;;9.50;46.20;;;;;;4966253;28;46445;-70
2023/12/16 12:12:05;;;;;;;9.60;4.13;;;9.60;45.50;;;;;;4966091;28;46528;-70
2023/12/16 12:14:31;;;;;;;7.10;3.67;;;9.60;44.80;;;;;;4968653;28;46665;-70
2023/12/16 12:16:57;;;;;;;5.70;3.67;;;9.70;44.40;;;;;;4967993;28;46231;-70
2023/12/16 12:19:23;;;;;;;5.30;3.80;;;9.80;43.60;;;;;;4967757;28;46454;-70
2023/12/16 12:21:50;;;;;;;6.20;3.60;;;9.80;42.80;;;;;;4969684;28;46479;-70
2023/12/16 12:24:16;;;;;;;6.07;3.57;;;9.70;42.50;;;;;;4967881;28;46917;-68
2023/12/16 12:26:44;;;;;;;5.50;3.60;;;9.70;42.50;;;;;;4968680;28;46637;-70
2023/12/16 12:29:10;;;;;;;6.37;3.27;;;9.50;42.70;;;;;;4966683;28;46639;-71
2023/12/16 12:31:46;;;;;;;4.80;2.97;;;9.40;43.20;;;;;;4970267;28;46639;-70
2023/12/16 12:34:22;;;;;;;4.40;3.20;;;9.10;43.30;;;;;;4969643;28;46451;-70
2023/12/16 12:36:53;;;;;;;7.00;3.90;;;8.90;43.80;;;;;;4967148;28;46358;-71
2023/12/16 12:39:19;;;;;;;5.40;3.60;;;8.70;44.40;;;;;;4968961;28;46491;-69